Time;durP1;ratioP1;P1;durP2;ratioP2;P2;SDS_P1;SDS_P2;PMS_P1;PMS_P2;Temp;Humidity;BMP_temperature;BMP_pressure;BME280_temperature;BME280_humidity;BME280_pressure;Samples;Min_cycle;Max_cycle;Signal;HPM_P1;HPM_P2
2022/03/27 00:01:14;;;;;;;1.40;1.20;;;15.90;59.30;;;;;;5031873;28;20136;-67
2022/03/27 00:03:41;;;;;;;1.60;1.20;;;15.60;56.70;;;;;;5031358;28;20136;-68
2022/03/27 00:06:09;;;;;;;1.58;1.20;;;15.60;59.20;;;;;;5031169;28;20427;-68
2022/03/27 00:08:36;;;;;;;1.90;1.30;;;15.90;53.90;;;;;;5029970;28;20056;-68
2022/03/27 00:13:47;;;;;;;1.53;1.20;;;16.00;58.80;;;;;;5032149;28;20041;-68
2022/03/27 00:16:14;;;;;;;2.13;1.40;;;15.60;59.40;;;;;;5030730;28;20049;-68
2022/03/27 00:18:42;;;;;;;2.15;1.40;;;15.90;58.50;;;;;;5032129;28;20049;-68
2022/03/27 00:21:10;;;;;;;1.27;1.10;;;15.20;59.00;;;;;;5031823;28;20539;-68
2022/03/27 00:23:37;;;;;;;1.83;1.20;;;15.90;59.60;;;;;;5031050;28;20061;-68
2022/03/27 00:26:04;;;;;;;2.25;1.30;;;15.60;59.10;;;;;;5029276;28;20056;-68
2022/03/27 00:28:32;;;;;;;2.22;1.40;;;15.70;59.40;;;;;;5031855;28;20616;-68
2022/03/27 00:31:00;;;;;;;2.25;1.45;;;15.70;52.90;;;;;;5031663;28;20057;-67
2022/03/27 00:33:27;;;;;;;1.60;1.30;;;15.80;59.70;;;;;;5030759;28;20057;-68
2022/03/27 00:35:54;;;;;;;1.83;1.20;;;16.30;52.30;;;;;;5031979;28;20419;-68
2022/03/27 00:38:22;;;;;;;1.92;1.30;;;15.80;59.70;;;;;;5030689;28;20053;-68
2022/03/27 00:40:50;;;;;;;1.83;1.33;;;15.80;59.70;;;;;;5030171;28;20056;-68
2022/03/27 00:43:17;;;;;;;1.70;1.20;;;15.70;59.70;;;;;;5031917;28;20045;-68
2022/03/27 00:45:44;;;;;;;1.85;1.30;;;;;;;;;;5030807;28;20056;-67
2022/03/27 00:48:11;;;;;;;2.08;1.50;;;15.70;59.60;;;;;;5031028;28;20062;-68
2022/03/27 00:50:38;;;;;;;1.73;1.10;;;15.80;57.40;;;;;;5034624;28;20057;-68
2022/03/27 00:53:05;;;;;;;1.75;1.30;;;15.60;59.60;;;;;;5035888;28;20060;-68
2022/03/27 00:55:33;;;;;;;1.75;1.20;;;15.20;59.00;;;;;;5035435;28;20527;-68
2022/03/27 00:58:01;;;;;;;2.47;1.40;;;;;;;;;;5014904;28;20068;-68
2022/03/27 01:00:55;;;;;;;1.80;1.20;;;15.70;59.60;;;;;;5014932;28;20404;-68
2022/03/27 01:03:23;;;;;;;2.03;1.20;;;15.70;59.70;;;;;;4993146;28;20064;-68
2022/03/27 01:05:50;;;;;;;1.70;1.20;;;15.70;53.50;;;;;;5014694;28;20060;-68
2022/03/27 01:09:35;;;;;;;2.17;1.38;;;15.70;59.60;;;;;;5015686;28;20053;-68
2022/03/27 01:11:09;;;;;;;1.50;1.10;;;15.70;59.70;;;;;;5014037;28;20046;-68
2022/03/27 01:13:36;;;;;;;2.65;1.27;;;15.40;59.50;;;;;;5016790;28;20082;-68
2022/03/27 01:16:03;;;;;;;1.80;1.20;;;15.60;58.70;;;;;;5014557;28;20050;-67
2022/03/27 01:18:29;;;;;;;1.73;1.20;;;15.80;59.50;;;;;;5014154;28;20069;-67
2022/03/27 01:20:57;;;;;;;2.58;1.30;;;16.00;59.60;;;;;;5014478;28;20058;-66
2022/03/27 01:23:24;;;;;;;1.83;1.40;;;;;;;;;;5015676;28;20054;-66
2022/03/27 01:25:51;;;;;;;2.35;1.35;;;15.50;59.60;;;;;;5017703;28;20055;-67
2022/03/27 01:28:18;;;;;;;2.72;1.20;;;15.70;59.80;;;;;;5032365;28;20411;-66
2022/03/27 01:30:45;;;;;;;2.08;1.30;;;;;;;;;;5034750;28;20053;-69
2022/03/27 01:33:13;;;;;;;2.42;1.25;;;15.30;59.30;;;;;;5035135;28;20107;-66
2022/03/27 01:35:39;;;;;;;5.03;1.40;;;15.60;59.40;;;;;;5033837;28;20128;-67
2022/03/27 01:38:08;;;;;;;2.58;1.30;;;15.60;59.80;;;;;;5034049;28;20411;-67
2022/03/27 01:40:34;;;;;;;3.35;1.40;;;15.10;59.10;;;;;;5033178;28;20151;-66
2022/03/27 01:43:01;;;;;;;2.72;1.40;;;15.60;57.20;;;;;;5032256;28;20492;-69
2022/03/27 01:45:28;;;;;;;2.60;1.50;;;15.60;59.40;;;;;;5034866;28;20053;-69
2022/03/27 01:47:55;;;;;;;2.00;1.40;;;15.50;52.00;;;;;;5033761;28;20053;-67
2022/03/27 01:50:22;;;;;;;1.85;1.30;;;14.90;59.10;;;;;;5034500;28;20049;-69
2022/03/27 01:52:49;;;;;;;1.98;1.38;;;;;;;;;;5034774;28;20055;-69
2022/03/27 01:55:17;;;;;;;1.80;1.15;;;15.10;59.40;;;;;;5033658;28;20053;-69
2022/03/27 01:57:44;;;;;;;1.80;1.10;;;15.60;59.50;;;;;;5031893;28;20136;-69
2022/03/27 02:00:12;;;;;;;2.03;1.50;;;15.20;59.50;;;;;;5033147;28;20071;-69
2022/03/27 02:02:38;;;;;;;1.55;1.08;;;15.50;59.40;;;;;;5033560;28;20484;-69
2022/03/27 02:05:06;;;;;;;1.60;1.30;;;16.00;60.00;;;;;;5034521;28;20049;-69
2022/03/27 02:07:36;;;;;;;1.92;1.40;;;15.40;59.60;;;;;;5033528;28;20060;-69
2022/03/27 02:10:03;;;;;;;3.28;1.60;;;15.00;59.30;;;;;;5032887;28;20092;-69
2022/03/27 02:12:34;;;;;;;2.40;1.35;;;15.50;52.00;;;;;;5034609;28;20243;-68
2022/03/27 02:15:00;;;;;;;2.15;1.30;;;15.00;59.20;;;;;;5023487;28;20505;-69
2022/03/27 02:17:27;;;;;;;3.22;1.40;;;15.50;59.70;;;;;;5014525;28;20049;-69
2022/03/27 02:19:54;;;;;;;1.83;1.30;;;;;;;;;;5014433;28;20055;-68
2022/03/27 02:22:21;;;;;;;2.90;1.50;;;15.40;59.60;;;;;;5014593;28;20056;-69
2022/03/27 02:24:48;;;;;;;2.67;1.38;;;15.50;59.70;;;;;;5014253;28;20060;-69
2022/03/27 02:27:15;;;;;;;2.38;1.40;;;15.40;59.50;;;;;;5014471;28;20448;-68
2022/03/27 02:29:43;;;;;;;1.75;1.25;;;15.40;51.80;;;;;;5015007;28;20056;-68
2022/03/27 02:32:10;;;;;;;3.58;1.85;;;15.50;59.70;;;;;;5032977;28;20057;-68
2022/03/27 02:34:37;;;;;;;3.42;1.33;;;15.50;59.60;;;;;;5034267;28;20049;-68
2022/03/27 02:37:04;;;;;;;2.20;1.40;;;15.40;59.70;;;;;;5033590;28;20060;-68
2022/03/27 02:39:31;;;;;;;2.75;1.27;;;15.50;55.60;;;;;;5032430;28;20410;-67
2022/03/27 02:41:57;;;;;;;4.20;1.45;;;15.60;59.40;;;;;;5032541;28;20049;-67
2022/03/27 02:44:24;;;;;;;2.40;1.40;;;15.50;59.40;;;;;;5032939;28;20057;-67
2022/03/27 02:46:52;;;;;;;2.75;1.45;;;15.40;52.90;;;;;;5031958;28;20053;-68
2022/03/27 02:49:20;;;;;;;3.33;1.42;;;15.50;52.80;;;;;;5032537;28;20111;-68
2022/03/27 02:51:47;;;;;;;2.78;1.40;;;;;;;;;;5033342;28;20069;-68
2022/03/27 02:54:14;;;;;;;2.65;1.33;;;15.60;59.30;;;;;;5032353;28;20056;-67
2022/03/27 02:56:40;;;;;;;2.08;1.33;;;15.50;59.50;;;;;;5032574;28;20053;-67
2022/03/27 02:59:07;;;;;;;2.45;1.40;;;15.30;52.00;;;;;;5033719;28;20056;-68
2022/03/27 03:01:35;;;;;;;2.17;1.30;;;15.40;59.50;;;;;;5032299;28;20053;-67
2022/03/27 03:04:04;;;;;;;1.95;1.35;;;15.50;57.30;;;;;;5012497;28;20050;-68
2022/03/27 03:06:31;;;;;;;2.15;1.30;;;15.50;59.30;;;;;;5013691;28;20480;-67
2022/03/27 03:08:58;;;;;;;2.60;1.52;;;15.00;58.90;;;;;;5012473;28;20053;-67
2022/03/27 03:11:25;;;;;;;2.35;1.40;;;15.40;59.20;;;;;;5024982;28;20510;-67
2022/03/27 03:13:52;;;;;;;2.38;1.33;;;15.40;57.10;;;;;;5033284;28;20404;-68
2022/03/27 03:16:19;;;;;;;2.35;1.50;;;15.00;59.00;;;;;;5033185;28;20054;-67
2022/03/27 03:18:46;;;;;;;3.35;1.50;;;15.40;59.20;;;;;;5022376;28;20057;-67
2022/03/27 03:21:14;;;;;;;2.30;1.42;;;15.40;59.30;;;;;;5011959;28;20056;-67
2022/03/27 03:23:41;;;;;;;2.75;1.45;;;15.00;59.30;;;;;;5012388;28;20062;-67
2022/03/27 03:26:09;;;;;;;1.90;1.27;;;15.40;55.00;;;;;;5012281;28;20056;-68
2022/03/27 03:28:35;;;;;;;2.03;1.30;;;14.80;59.00;;;;;;5012105;28;20058;-67
2022/03/27 03:31:02;;;;;;;2.95;1.30;;;15.40;56.60;;;;;;5019739;28;20052;-68
2022/03/27 03:33:29;;;;;;;2.08;1.33;;;14.90;59.30;;;;;;5031107;28;20063;-67
2022/03/27 03:35:56;;;;;;;1.90;1.45;;;14.90;55.70;;;;;;5011787;28;20053;-67
2022/03/27 03:38:24;;;;;;;2.70;1.50;;;15.30;59.50;;;;;;5011848;28;20068;-68
2022/03/27 03:40:51;;;;;;;4.97;1.88;;;15.30;59.50;;;;;;5011723;28;20064;-67
2022/03/27 03:43:20;;;;;;;2.88;1.27;;;14.90;59.10;;;;;;5013069;28;20058;-67
2022/03/27 03:45:47;;;;;;;2.97;1.48;;;15.40;58.80;;;;;;5012018;28;20054;-69
2022/03/27 03:48:14;;;;;;;1.90;1.35;;;14.80;59.00;;;;;;5011831;28;20053;-69
2022/03/27 03:50:41;;;;;;;2.47;1.42;;;15.30;59.50;;;;;;5012661;28;20149;-69
2022/03/27 03:53:08;;;;;;;4.88;1.70;;;15.30;59.60;;;;;;5011252;28;20058;-69
2022/03/27 03:55:36;;;;;;;2.33;1.30;;;16.60;53.50;;;;;;5012806;28;20133;-68
2022/03/27 03:58:03;;;;;;;2.95;1.50;;;15.30;59.00;;;;;;5012572;28;20566;-69
2022/03/27 04:00:30;;;;;;;4.22;1.48;;;15.40;59.60;;;;;;5011437;28;20054;-68
2022/03/27 04:02:57;;;;;;;2.60;1.50;;;15.30;59.20;;;;;;5012649;28;20061;-68
2022/03/27 04:05:24;;;;;;;2.92;1.35;;;15.40;59.40;;;;;;5013390;28;20472;-68
2022/03/27 04:07:51;;;;;;;2.97;1.55;;;;;;;;;;5012653;28;20062;-67
2022/03/27 04:10:17;;;;;;;3.58;1.67;;;15.40;59.60;;;;;;5012237;28;20463;-68
2022/03/27 04:12:45;;;;;;;2.85;1.50;;;15.30;59.50;;;;;;5012406;28;20056;-68
2022/03/27 04:15:12;;;;;;;2.80;1.35;;;16.00;59.60;;;;;;5012191;28;20061;-68
2022/03/27 04:17:43;;;;;;;3.70;1.50;;;15.30;51.70;;;;;;5011221;28;20054;-67
2022/03/27 04:20:10;;;;;;;4.35;1.60;;;15.20;59.10;;;;;;5011041;28;20081;-68
2022/03/27 04:22:37;;;;;;;3.33;1.40;;;;;;;;;;5012005;28;20050;-68
2022/03/27 04:25:05;;;;;;;2.35;1.25;;;15.20;59.30;;;;;;5010779;28;20064;-67
2022/03/27 04:27:31;;;;;;;3.47;1.65;;;15.50;57.50;;;;;;5012514;28;20077;-68
2022/03/27 04:30:00;;;;;;;3.72;1.50;;;15.50;59.10;;;;;;5010925;28;20057;-67
2022/03/27 04:32:26;;;;;;;5.18;2.00;;;15.50;59.30;;;;;;5012495;28;20046;-67
2022/03/27 04:34:54;;;;;;;4.43;1.50;;;;;;;;;;5010972;28;20050;-68
2022/03/27 04:37:21;;;;;;;5.05;1.67;;;16.10;59.70;;;;;;5010947;28;20073;-67
2022/03/27 04:39:48;;;;;;;2.33;1.38;;;;;;;;;;5010608;28;20507;-69
2022/03/27 04:42:15;;;;;;;2.92;1.48;;;15.10;59.00;;;;;;5011029;28;20053;-68
2022/03/27 04:44:42;;;;;;;5.60;1.90;;;;;;;;;;5011135;28;20064;-68
2022/03/27 04:47:10;;;;;;;4.97;1.85;;;15.20;59.30;;;;;;5010988;28;20129;-67
2022/03/27 04:49:37;;;;;;;4.53;1.73;;;15.50;59.50;;;;;;5011597;28;20052;-67
2022/03/27 04:52:04;;;;;;;4.15;1.60;;;15.40;52.50;;;;;;5011075;28;20061;-68
2022/03/27 04:54:32;;;;;;;2.83;1.50;;;15.50;59.50;;;;;;5010976;28;20056;-67
2022/03/27 04:56:59;;;;;;;3.75;1.55;;;15.80;59.30;;;;;;5011004;28;20125;-67
2022/03/27 04:59:26;;;;;;;3.17;1.42;;;;;;;;;;5010542;28;20065;-68
2022/03/27 05:01:53;;;;;;;4.05;1.48;;;15.50;59.10;;;;;;5011798;28;20097;-67
2022/03/27 05:04:21;;;;;;;4.15;1.88;;;15.40;51.60;;;;;;5011819;28;20581;-67
2022/03/27 05:06:48;;;;;;;4.70;1.92;;;15.50;59.00;;;;;;5012259;28;20046;-67
2022/03/27 05:09:14;;;;;;;4.18;1.60;;;16.00;54.70;;;;;;5010788;28;20121;-68
2022/03/27 05:11:41;;;;;;;3.92;1.50;;;14.80;58.80;;;;;;5010658;28;20485;-69
2022/03/27 05:14:08;;;;;;;4.18;1.40;;;15.40;59.40;;;;;;5011988;28;20048;-68
2022/03/27 05:16:35;;;;;;;3.60;1.60;;;14.90;58.80;;;;;;5011414;28;20492;-68
2022/03/27 05:19:01;;;;;;;4.57;1.75;;;15.50;57.00;;;;;;5011567;28;20423;-68
2022/03/27 05:21:30;;;;;;;5.18;1.60;;;15.40;51.60;;;;;;5010175;28;20057;-67
2022/03/27 05:23:57;;;;;;;3.90;1.65;;;;;;;;;;5011830;28;20045;-68
2022/03/27 05:26:24;;;;;;;4.63;1.65;;;15.10;59.10;;;;;;5011431;28;20046;-68
2022/03/27 05:28:51;;;;;;;6.43;1.63;;;;;;;;;;5012042;28;20054;-68
2022/03/27 05:31:17;;;;;;;4.00;1.63;;;15.00;59.00;;;;;;5014089;28;20059;-68
2022/03/27 05:33:44;;;;;;;7.38;2.20;;;15.60;59.10;;;;;;5011669;28;20057;-68
2022/03/27 05:36:11;;;;;;;6.70;1.55;;;15.50;55.00;;;;;;5013656;28;20062;-68
2022/03/27 05:38:40;;;;;;;6.80;2.00;;;15.50;59.30;;;;;;5014094;28;20412;-68
2022/03/27 05:41:06;;;;;;;6.15;1.85;;;15.50;59.10;;;;;;5015295;28;20358;-68
2022/03/27 05:43:33;;;;;;;4.40;1.80;;;;;;;;;;5015346;28;20049;-68
2022/03/27 05:46:00;;;;;;;7.35;2.22;;;15.50;59.00;;;;;;5014046;28;20049;-68
2022/03/27 05:48:27;;;;;;;6.18;2.17;;;15.50;59.20;;;;;;5015232;28;20042;-68
2022/03/27 05:50:54;;;;;;;5.28;1.70;;;15.50;55.90;;;;;;5019606;28;20049;-68
2022/03/27 05:53:20;;;;;;;4.20;1.75;;;16.30;59.60;;;;;;5033628;28;20496;-68
2022/03/27 05:55:48;;;;;;;6.80;2.20;;;15.20;58.80;;;;;;5034830;28;20058;-68
2022/03/27 05:58:16;;;;;;;7.32;1.95;;;14.80;58.90;;;;;;5033409;28;20060;-68
2022/03/27 06:00:43;;;;;;;7.25;1.90;;;15.60;59.10;;;;;;5033495;28;20059;-68
2022/03/27 06:03:10;;;;;;;6.47;1.90;;;;;;;;;;5034577;28;20099;-67
2022/03/27 06:05:36;;;;;;;6.28;1.65;;;15.50;59.20;;;;;;5018912;28;20050;-68
2022/03/27 06:08:03;;;;;;;6.80;1.70;;;15.60;59.00;;;;;;5014837;28;20052;-68
2022/03/27 06:10:32;;;;;;;4.82;1.75;;;15.40;59.00;;;;;;5014700;28;20053;-68
2022/03/27 06:13:00;;;;;;;7.22;2.03;;;15.40;59.30;;;;;;5015133;28;20085;-69
2022/03/27 06:15:27;;;;;;;6.22;2.10;;;15.40;59.10;;;;;;5013681;28;20124;-68
2022/03/27 06:17:54;;;;;;;7.90;1.90;;;;;;;;;;5013562;28;20046;-67
2022/03/27 06:20:22;;;;;;;3.75;1.73;;;15.60;59.00;;;;;;5015159;28;20042;-68
2022/03/27 06:22:48;;;;;;;5.10;1.88;;;15.60;56.20;;;;;;5014315;28;20046;-68
2022/03/27 06:25:16;;;;;;;6.97;2.10;;;15.50;59.30;;;;;;5013250;28;20133;-67
2022/03/27 06:27:43;;;;;;;7.50;1.90;;;15.50;58.90;;;;;;5014794;28;20461;-67
2022/03/27 06:30:12;;;;;;;5.90;2.10;;;15.50;59.00;;;;;;5013928;28;20056;-67
2022/03/27 06:32:39;;;;;;;6.78;1.90;;;15.60;59.30;;;;;;5013272;28;20061;-68
2022/03/27 06:35:07;;;;;;;5.63;1.88;;;15.60;59.00;;;;;;5014302;28;20492;-66
2022/03/27 06:37:33;;;;;;;4.70;1.75;;;15.50;58.90;;;;;;5015372;28;20049;-67
2022/03/27 06:40:00;;;;;;;4.78;1.80;;;15.70;59.40;;;;;;5014176;28;20056;-67
2022/03/27 06:42:27;;;;;;;6.13;2.10;;;15.50;59.20;;;;;;5012884;28;20054;-67
2022/03/27 06:44:54;;;;;;;6.47;2.05;;;15.60;59.00;;;;;;5012871;28;20050;-67
2022/03/27 06:47:23;;;;;;;7.85;2.10;;;15.50;59.20;;;;;;5012287;28;20057;-68
2022/03/27 06:49:50;;;;;;;4.25;1.70;;;15.40;59.20;;;;;;5012651;28;20068;-69
2022/03/27 06:52:17;;;;;;;4.55;2.10;;;15.50;54.80;;;;;;5014137;28;20477;-68
2022/03/27 06:54:44;;;;;;;7.03;2.17;;;14.90;58.60;;;;;;5012798;28;20077;-68
2022/03/27 06:57:11;;;;;;;5.70;1.95;;;;;;;;;;5012763;28;20050;-68
2022/03/27 07:05:09;;;;;;;9.48;2.80;;;14.70;52.70;;;;;;5013702;28;20508;-68
2022/03/27 07:07:36;;;;;;;6.88;2.30;;;15.50;58.90;;;;;;5016109;28;20054;-68
2022/03/27 07:10:03;;;;;;;6.38;2.03;;;15.60;59.10;;;;;;5026243;28;20554;-69
2022/03/27 07:12:29;;;;;;;6.57;2.13;;;16.20;52.80;;;;;;5033505;28;20100;-69
2022/03/27 07:14:57;;;;;;;7.88;2.08;;;15.50;58.70;;;;;;5033249;28;20488;-69
2022/03/27 07:17:25;;;;;;;5.10;1.75;;;16.60;52.00;;;;;;5032047;28;20061;-69
2022/03/27 07:19:52;;;;;;;6.63;2.20;;;15.50;58.90;;;;;;5033088;28;20103;-67
2022/03/27 07:22:19;;;;;;;6.22;2.17;;;14.90;58.60;;;;;;5032932;28;20049;-67
2022/03/27 07:24:50;;;;;;;6.90;2.28;;;15.20;58.10;;;;;;5020842;28;20493;-66
2022/03/27 07:27:16;;;;;;;12.90;3.13;;;15.70;58.90;;;;;;5012148;28;20420;-66
2022/03/27 07:29:43;;;;;;;15.25;3.90;;;15.50;58.80;;;;;;5030931;28;20057;-66
2022/03/27 07:32:11;;;;;;;13.45;3.90;;;14.80;52.00;;;;;;5032658;28;20053;-66
2022/03/27 07:34:40;;;;;;;9.40;3.30;;;15.50;58.80;;;;;;5032804;28;20408;-65
2022/03/27 07:37:08;;;;;;;9.25;3.00;;;16.00;58.80;;;;;;5032906;28;20132;-66
2022/03/27 07:39:35;;;;;;;9.45;2.70;;;15.70;58.80;;;;;;5031626;28;20076;-66
2022/03/27 07:42:02;;;;;;;10.68;2.95;;;;;;;;;;5031707;28;20415;-67
2022/03/27 07:44:29;;;;;;;11.00;3.08;;;15.80;58.60;;;;;;5032527;28;20057;-66
2022/03/27 07:46:59;;;;;;;6.53;2.50;;;;;;;;;;5032610;28;20096;-67
2022/03/27 07:49:26;;;;;;;7.35;2.58;;;15.80;58.70;;;;;;5031356;28;20110;-68
2022/03/27 07:51:54;;;;;;;9.02;2.70;;;15.10;57.00;;;;;;5028171;28;20135;-68
2022/03/27 07:54:22;;;;;;;7.85;2.30;;;15.10;58.30;;;;;;5024283;28;20054;-68
2022/03/27 07:56:48;;;;;;;7.05;2.20;;;17.30;53.40;;;;;;5032622;28;20096;-68
2022/03/27 07:59:15;;;;;;;6.85;2.25;;;15.70;58.50;;;;;;5015274;28;20269;-70
2022/03/27 08:01:42;;;;;;;8.25;2.65;;;15.90;58.60;;;;;;5023596;28;20049;-70
2022/03/27 08:04:09;;;;;;;7.20;2.50;;;;;;;;;;5032129;28;20045;-68
2022/03/27 08:06:36;;;;;;;6.63;2.17;;;16.60;58.50;;;;;;5032366;28;20045;-69
2022/03/27 08:09:05;;;;;;;7.25;2.53;;;15.80;54.20;;;;;;5031186;28;20049;-68
2022/03/27 08:11:32;;;;;;;6.13;2.50;;;16.20;58.20;;;;;;5012709;28;20049;-68
2022/03/27 08:13:58;;;;;;;7.45;2.30;;;16.00;58.20;;;;;;5012627;28;20439;-68
2022/03/27 08:16:26;;;;;;;6.90;2.45;;;16.20;54.70;;;;;;5012170;28;20057;-68
2022/03/27 08:18:52;;;;;;;6.78;2.30;;;16.40;58.00;;;;;;5012389;28;20045;-68
2022/03/27 08:21:20;;;;;;;6.40;3.00;;;;;;;;;;5010688;28;20081;-68
2022/03/27 08:23:46;;;;;;;5.45;2.30;;;16.30;58.30;;;;;;5012311;28;20045;-68
2022/03/27 08:29:02;;;;;;;6.18;2.53;;;16.40;58.10;;;;;;5011125;28;20061;-68
2022/03/27 08:31:29;;;;;;;9.82;2.70;;;;;;;;;;5011746;28;20049;-69
2022/03/27 08:33:56;;;;;;;5.68;2.08;;;16.20;57.80;;;;;;5012191;28;20042;-68
2022/03/27 08:36:23;;;;;;;7.13;2.45;;;15.50;57.20;;;;;;5012589;28;20408;-68
2022/03/27 08:38:50;;;;;;;4.70;2.10;;;16.10;54.00;;;;;;5010774;28;20056;-68
2022/03/27 08:41:18;;;;;;;7.07;2.63;;;16.20;57.40;;;;;;5010889;28;20068;-70
2022/03/27 08:43:45;;;;;;;6.70;2.20;;;16.50;57.60;;;;;;5012257;28;20424;-70
2022/03/27 08:46:12;;;;;;;6.35;2.40;;;;;;;;;;5016048;28;20041;-68
2022/03/27 08:48:40;;;;;;;6.43;2.67;;;16.60;57.90;;;;;;5030600;28;20510;-70
2022/03/27 08:51:08;;;;;;;8.38;2.40;;;15.70;57.00;;;;;;5030343;28;20057;-70
2022/03/27 08:53:39;;;;;;;7.55;2.53;;;16.50;57.70;;;;;;5026573;28;20050;-70
2022/03/27 08:56:06;;;;;;;6.50;2.33;;;16.40;57.70;;;;;;5025231;28;20054;-70
2022/03/27 08:58:36;;;;;;;7.13;2.53;;;16.50;57.70;;;;;;5030562;28;20500;-68
2022/03/27 09:01:04;;;;;;;6.72;2.55;;;17.10;57.70;;;;;;5029548;28;20053;-68
2022/03/27 09:03:30;;;;;;;6.07;2.15;;;16.70;56.30;;;;;;5030474;28;20571;-70
2022/03/27 09:05:59;;;;;;;6.88;2.60;;;17.40;57.80;;;;;;5031795;28;20045;-70
2022/03/27 09:08:26;;;;;;;9.30;2.88;;;16.50;57.60;;;;;;5030380;28;20469;-70
2022/03/27 09:10:53;;;;;;;6.38;2.45;;;16.00;52.50;;;;;;5033900;28;20056;-70
2022/03/27 09:13:19;;;;;;;9.00;2.20;;;16.40;57.00;;;;;;5034963;28;20435;-70
2022/03/27 09:15:57;;;;;;;9.63;2.72;;;16.70;50.00;;;;;;5035707;28;20057;-68
2022/03/27 09:18:24;;;;;;;8.93;2.28;;;;;;;;;;5035258;28;20057;-70
2022/03/27 09:20:52;;;;;;;6.57;2.75;;;16.80;57.10;;;;;;5034490;28;20042;-70
2022/03/27 09:23:22;;;;;;;7.45;2.65;;;17.00;53.50;;;;;;5028187;28;20450;-70
2022/03/27 09:25:54;;;;;;;6.82;2.65;;;17.00;56.90;;;;;;5017998;28;20089;-70
2022/03/27 09:28:29;;;;;;;6.68;2.40;;;16.90;49.80;;;;;;5015643;28;20121;-69
2022/03/27 09:30:58;;;;;;;7.80;2.28;;;16.50;56.60;;;;;;5013892;28;20061;-70
2022/03/27 09:33:47;;;;;;;9.95;2.95;;;17.20;57.30;;;;;;5015398;28;20060;-70
2022/03/27 09:36:15;;;;;;;8.40;2.53;;;17.20;56.00;;;;;;5014031;28;20157;-69
2022/03/27 09:38:42;;;;;;;9.50;2.60;;;;;;;;;;5014997;28;20140;-70
2022/03/27 09:41:29;;;;;;;7.65;2.40;;;17.10;57.10;;;;;;5014565;28;20065;-70
2022/03/27 09:43:59;;;;;;;7.25;2.50;;;17.30;57.10;;;;;;5015075;28;20050;-70
2022/03/27 09:46:28;;;;;;;6.90;2.95;;;17.10;52.50;;;;;;5020089;28;20061;-70
2022/03/27 09:48:58;;;;;;;7.72;2.38;;;17.10;49.60;;;;;;5033755;28;20057;-69
2022/03/27 09:51:26;;;;;;;7.90;2.67;;;;;;;;;;5033409;28;20060;-68
2022/03/27 09:53:56;;;;;;;7.80;2.78;;;16.10;56.30;;;;;;5033463;28;20055;-67
2022/03/27 09:56:23;;;;;;;7.47;2.70;;;17.40;56.70;;;;;;5018114;28;20061;-67
2022/03/27 09:58:50;;;;;;;7.05;2.60;;;16.70;56.50;;;;;;5015207;28;20052;-68
2022/03/27 10:01:17;;;;;;;5.68;2.22;;;17.20;56.80;;;;;;5013462;28;20412;-67
2022/03/27 10:03:59;;;;;;;7.75;2.60;;;17.20;56.70;;;;;;5013850;28;20054;-67
2022/03/27 10:06:31;;;;;;;6.72;2.33;;;17.40;56.40;;;;;;5013681;28;20108;-67
2022/03/27 10:08:58;;;;;;;6.50;2.60;;;17.30;56.80;;;;;;5013654;28;20383;-67
2022/03/27 10:11:25;;;;;;;5.85;2.17;;;17.30;56.70;;;;;;5033655;28;20071;-67
2022/03/27 10:13:53;;;;;;;6.15;2.35;;;17.20;56.60;;;;;;5049395;28;20515;-67
2022/03/27 10:16:23;;;;;;;6.35;2.60;;;17.20;49.30;;;;;;5053154;28;20495;-70
2022/03/27 10:18:51;;;;;;;6.15;2.50;;;17.50;56.80;;;;;;5053200;28;20044;-67
2022/03/27 10:21:19;;;;;;;4.88;2.20;;;17.30;56.40;;;;;;5052756;28;20049;-68
2022/03/27 10:23:45;;;;;;;6.65;2.38;;;17.40;56.50;;;;;;5053182;28;20139;-67
2022/03/27 10:26:12;;;;;;;6.25;2.53;;;17.30;56.60;;;;;;5054353;28;20045;-70
2022/03/27 10:28:39;;;;;;;7.07;2.20;;;17.20;56.20;;;;;;5041016;28;20045;-67
2022/03/27 10:31:07;;;;;;;8.25;2.63;;;17.10;56.60;;;;;;5033760;28;20056;-67
2022/03/27 10:33:33;;;;;;;7.95;2.63;;;17.40;56.40;;;;;;5034162;28;20055;-68
2022/03/27 10:36:04;;;;;;;6.47;2.40;;;16.40;56.00;;;;;;5033042;28;20515;-67
2022/03/27 10:38:42;;;;;;;6.88;2.38;;;17.40;56.40;;;;;;5034312;28;20056;-70
2022/03/27 10:41:13;;;;;;;5.75;2.30;;;17.30;49.40;;;;;;5033469;28;20050;-69
2022/03/27 10:43:44;;;;;;;6.32;2.10;;;16.50;55.90;;;;;;5032483;28;20052;-70
2022/03/27 10:46:15;;;;;;;8.10;2.50;;;17.30;49.40;;;;;;5032934;28;20072;-70
2022/03/27 10:48:44;;;;;;;6.03;2.45;;;17.50;56.40;;;;;;5032611;28;20054;-70
2022/03/27 10:51:11;;;;;;;6.72;2.67;;;17.50;56.30;;;;;;5036683;28;20115;-70
2022/03/27 10:53:39;;;;;;;6.00;2.20;;;17.80;54.20;;;;;;5052399;28;20053;-70
2022/03/27 10:56:05;;;;;;;4.68;1.92;;;17.30;53.40;;;;;;5054013;28;20049;-70
2022/03/27 10:58:34;;;;;;;7.68;2.33;;;17.50;56.50;;;;;;5052398;28;20051;-70
2022/03/27 11:01:02;;;;;;;7.18;2.33;;;17.40;56.50;;;;;;5052037;28;20057;-67
2022/03/27 11:03:48;;;;;;;7.93;2.42;;;17.30;56.40;;;;;;5053436;28;20056;-67
2022/03/27 11:06:26;;;;;;;7.32;2.22;;;17.40;49.20;;;;;;5022895;28;20425;-70
2022/03/27 11:08:55;;;;;;;4.82;1.65;;;18.30;56.80;;;;;;5023538;28;20053;-64
2022/03/27 11:11:50;;;;;;;7.47;2.30;;;17.70;56.20;;;;;;5031658;28;20059;-65
2022/03/27 11:14:23;;;;;;;6.38;2.38;;;17.60;56.90;;;;;;5025248;28;20041;-65
2022/03/27 11:17:10;;;;;;;6.93;2.50;;;17.50;49.30;;;;;;5021556;28;20072;-68
2022/03/27 11:19:43;;;;;;;8.00;2.60;;;17.60;56.50;;;;;;5016471;28;20042;-66
2022/03/27 11:22:49;;;;;;;7.50;2.45;;;17.60;49.30;;;;;;5012579;28;20508;-68
2022/03/27 11:25:34;;;;;;;8.68;2.70;;;17.70;53.10;;;;;;5006098;28;20045;-65
2022/03/27 11:28:10;;;;;;;7.07;2.30;;;17.60;56.60;;;;;;5028872;28;20052;-65
2022/03/27 11:30:37;;;;;;;;;;;17.60;49.90;;;;;;5032741;28;20060;-65
2022/03/27 11:33:14;;;;;;;7.32;2.42;;;17.50;49.30;;;;;;5024578;28;19921;-67
2022/03/27 11:35:41;;;;;;;5.85;2.47;;;17.40;56.40;;;;;;5030747;28;20407;-64
2022/03/27 11:38:24;;;;;;;7.43;2.42;;;17.60;49.30;;;;;;5030502;28;20049;-66
2022/03/27 11:40:52;;;;;;;8.55;2.60;;;17.80;56.20;;;;;;5032740;28;20404;-64
2022/03/27 11:43:32;;;;;;;7.22;2.40;;;18.00;56.50;;;;;;5026231;28;20051;-65
2022/03/27 11:45:59;;;;;;;11.05;3.05;;;17.80;56.00;;;;;;5019300;28;20052;-67
2022/03/27 11:48:26;;;;;;;6.38;2.28;;;17.80;56.10;;;;;;5020373;28;20049;-68
2022/03/27 11:50:54;;;;;;;6.72;2.47;;;17.70;56.00;;;;;;5032260;28;20049;-66
2022/03/27 11:53:31;;;;;;;8.00;2.60;;;17.70;49.10;;;;;;5021915;28;20129;-66
2022/03/27 11:56:07;;;;;;;7.13;2.67;;;17.70;49.10;;;;;;5024490;28;20519;-66
2022/03/27 11:58:34;;;;;;;6.18;2.10;;;17.90;56.30;;;;;;5012923;28;20053;-66
2022/03/27 12:01:03;;;;;;;6.05;2.13;;;17.90;51.00;;;;;;5015128;28;20074;-66
2022/03/27 12:03:30;;;;;;;7.65;2.70;;;18.10;56.00;;;;;;5013880;28;20095;-66
2022/03/27 12:06:03;;;;;;;8.25;2.55;;;17.70;49.00;;;;;;5021254;28;20049;-66
2022/03/27 12:08:34;;;;;;;7.22;2.40;;;17.80;49.00;;;;;;5014565;28;20057;-66
2022/03/27 12:11:05;;;;;;;5.75;2.25;;;17.60;55.70;;;;;;5018424;28;20060;-66
2022/03/27 12:13:38;;;;;;;7.18;2.75;;;17.80;52.20;;;;;;5022628;28;20049;-66
2022/03/27 12:16:05;;;;;;;6.80;2.67;;;17.80;49.00;;;;;;5021669;28;20051;-66
2022/03/27 12:18:33;;;;;;;5.05;2.30;;;17.50;55.90;;;;;;5023248;28;20111;-66
2022/03/27 12:21:00;;;;;;;7.53;2.47;;;18.50;51.40;;;;;;5025355;28;20069;-66
2022/03/27 12:23:30;;;;;;;5.35;2.10;;;18.10;56.50;;;;;;5030235;28;20053;-66
2022/03/27 12:31:57;;;;;;;7.80;2.50;;;17.80;54.90;;;;;;5026221;28;20045;-67
2022/03/27 12:34:24;;;;;;;7.22;2.30;;;;;;;;;;5027241;28;20046;-68
2022/03/27 12:37:09;;;;;;;6.18;2.17;;;17.80;49.40;;;;;;5009515;28;20385;-67
2022/03/27 12:39:36;;;;;;;7.03;2.33;;;;;;;;;;5017864;28;20137;-68
2022/03/27 12:42:03;;;;;;;6.05;2.40;;;17.90;55.90;;;;;;5009567;28;20057;-68
2022/03/27 12:44:49;;;;;;;5.72;2.47;;;18.00;52.20;;;;;;5026788;28;20051;-67
2022/03/27 12:47:16;;;;;;;7.78;2.75;;;17.80;54.90;;;;;;5012802;28;20496;-67
2022/03/27 12:49:50;;;;;;;6.22;2.53;;;16.70;55.50;;;;;;5027501;28;20049;-67
2022/03/27 12:52:16;;;;;;;6.82;2.42;;;17.10;53.80;;;;;;5023481;28;20046;-67
2022/03/27 12:54:57;;;;;;;6.80;2.53;;;17.90;56.50;;;;;;5024937;28;20067;-66
2022/03/27 12:57:24;;;;;;;4.90;1.98;;;18.30;56.50;;;;;;5030313;28;20057;-67
2022/03/27 12:59:52;;;;;;;5.43;2.00;;;18.00;56.30;;;;;;5027236;28;20069;-66
2022/03/27 13:02:26;;;;;;;5.50;2.05;;;18.00;56.30;;;;;;5019254;28;20052;-66
2022/03/27 13:05:00;;;;;;;6.45;2.35;;;17.80;52.40;;;;;;5010612;28;20083;-66
2022/03/27 13:07:52;;;;;;;5.43;1.75;;;17.80;49.50;;;;;;5010232;28;20143;-67
2022/03/27 13:10:19;;;;;;;6.00;2.35;;;17.80;56.20;;;;;;5012600;28;20418;-69
2022/03/27 13:12:46;;;;;;;5.38;2.20;;;17.80;55.40;;;;;;5010684;28;20493;-69
2022/03/27 13:15:15;;;;;;;5.70;2.25;;;17.80;50.40;;;;;;5012550;28;20064;-69
2022/03/27 13:17:41;;;;;;;5.00;2.30;;;17.90;50.90;;;;;;5012093;28;20556;-69
2022/03/27 13:20:09;;;;;;;5.82;2.28;;;16.70;55.60;;;;;;5011257;28;20057;-69
2022/03/27 13:22:36;;;;;;;5.68;2.08;;;17.90;56.20;;;;;;5012359;28;20050;-69